sensor_id;sensor_type;location;lat;lon;timestamp;temperature;humidity
4985;DHT22;2509;49.902;8.600;2023-04-16T00:00:11;8.80;99.90
4985;DHT22;2509;49.902;8.600;2023-04-16T00:03:14;8.80;99.90
4985;DHT22;2509;49.902;8.600;2023-04-16T00:06:16;8.80;99.90
4985;DHT22;2509;49.902;8.600;2023-04-16T00:09:17;8.80;99.90
4985;DHT22;2509;49.902;8.600;2023-04-16T00:12:19;8.80;99.90
4985;DHT22;2509;49.902;8.600;2023-04-16T00:15:21;8.80;99.90
4985;DHT22;2509;49.902;8.600;2023-04-16T00:18:24;8.80;99.90
4985;DHT22;2509;49.902;8.600;2023-04-16T00:21:27;8.80;99.90
4985;DHT22;2509;49.902;8.600;2023-04-16T00:24:28;8.80;99.90
4985;DHT22;2509;49.902;8.600;2023-04-16T00:27:30;8.80;99.90
4985;DHT22;2509;49.902;8.600;2023-04-16T00:30:32;8.70;99.90
4985;DHT22;2509;49.902;8.600;2023-04-16T00:33:35;8.70;99.90
4985;DHT22;2509;49.902;8.600;2023-04-16T00:36:37;8.80;99.90
4985;DHT22;2509;49.902;8.600;2023-04-16T00:39:38;8.80;99.90
4985;DHT22;2509;49.902;8.600;2023-04-16T00:42:40;8.80;99.90
4985;DHT22;2509;49.902;8.600;2023-04-16T00:45:42;8.80;99.90
4985;DHT22;2509;49.902;8.600;2023-04-16T00:48:45;8.80;99.90
4985;DHT22;2509;49.902;8.600;2023-04-16T00:51:48;8.80;99.90
4985;DHT22;2509;49.902;8.600;2023-04-16T00:54:50;8.80;99.90
4985;DHT22;2509;49.902;8.600;2023-04-16T00:57:51;8.80;99.90
4985;DHT22;2509;49.902;8.600;2023-04-16T01:00:53;8.80;99.90
4985;DHT22;2509;49.902;8.600;2023-04-16T01:03:57;8.80;99.90
4985;DHT22;2509;49.902;8.600;2023-04-16T01:06:59;8.80;99.90
4985;DHT22;2509;49.902;8.600;2023-04-16T01:10:01;8.80;99.90
4985;DHT22;2509;49.902;8.600;2023-04-16T01:13:03;8.80;99.90
4985;DHT22;2509;49.902;8.600;2023-04-16T01:16:05;8.80;99.90
4985;DHT22;2509;49.902;8.600;2023-04-16T01:19:09;8.80;99.90
4985;DHT22;2509;49.902;8.600;2023-04-16T01:22:12;8.80;99.90
4985;DHT22;2509;49.902;8.600;2023-04-16T01:25:14;8.80;99.90
4985;DHT22;2509;49.902;8.600;2023-04-16T01:28:16;8.80;99.90
4985;DHT22;2509;49.902;8.600;2023-04-16T01:31:18;8.80;99.90
4985;DHT22;2509;49.902;8.600;2023-04-16T01:34:19;8.90;99.90
4985;DHT22;2509;49.902;8.600;2023-04-16T01:37:23;8.90;99.90
4985;DHT22;2509;49.902;8.600;2023-04-16T01:40:24;8.90;99.90
4985;DHT22;2509;49.902;8.600;2023-04-16T01:43:26;8.90;99.90
4985;DHT22;2509;49.902;8.600;2023-04-16T01:46:30;8.90;99.90
4985;DHT22;2509;49.902;8.600;2023-04-16T01:49:33;8.90;99.90
4985;DHT22;2509;49.902;8.600;2023-04-16T01:52:37;8.90;99.90
4985;DHT22;2509;49.902;8.600;2023-04-16T01:55:39;8.90;99.90
4985;DHT22;2509;49.902;8.600;2023-04-16T01:58:40;8.90;99.90
4985;DHT22;2509;49.902;8.600;2023-04-16T02:01:43;8.90;99.90
4985;DHT22;2509;49.902;8.600;2023-04-16T02:04:45;8.90;99.90
4985;DHT22;2509;49.902;8.600;2023-04-16T02:07:48;8.90;99.90
4985;DHT22;2509;49.902;8.600;2023-04-16T02:10:50;8.90;99.90
4985;DHT22;2509;49.902;8.600;2023-04-16T02:13:52;8.90;99.90
4985;DHT22;2509;49.902;8.600;2023-04-16T02:16:53;8.90;99.90
4985;DHT22;2509;49.902;8.600;2023-04-16T02:19:55;8.90;99.90
4985;DHT22;2509;49.902;8.600;2023-04-16T02:22:58;8.90;99.90
4985;DHT22;2509;49.902;8.600;2023-04-16T02:26:02;8.90;99.90
4985;DHT22;2509;49.902;8.600;2023-04-16T02:29:04;8.90;99.90
4985;DHT22;2509;49.902;8.600;2023-04-16T02:32:05;8.90;99.90
4985;DHT22;2509;49.902;8.600;2023-04-16T02:35:07;8.90;99.90
4985;DHT22;2509;49.902;8.600;2023-04-16T02:38:10;8.90;99.90
4985;DHT22;2509;49.902;8.600;2023-04-16T02:41:12;8.90;99.90
4985;DHT22;2509;49.902;8.600;2023-04-16T02:44:14;8.90;99.90
4985;DHT22;2509;49.902;8.600;2023-04-16T02:47:16;8.90;99.90
4985;DHT22;2509;49.902;8.600;2023-04-16T02:50:18;8.90;99.90
4985;DHT22;2509;49.902;8.600;2023-04-16T02:53:21;8.90;99.90
4985;DHT22;2509;49.902;8.600;2023-04-16T02:56:23;8.90;99.90
4985;DHT22;2509;49.902;8.600;2023-04-16T02:59:24;8.90;99.90
4985;DHT22;2509;49.902;8.600;2023-04-16T03:02:26;8.90;99.90
4985;DHT22;2509;49.902;8.600;2023-04-16T03:05:28;8.90;99.90
4985;DHT22;2509;49.902;8.600;2023-04-16T03:08:31;8.90;99.90
4985;DHT22;2509;49.902;8.600;2023-04-16T03:11:33;8.90;99.90
4985;DHT22;2509;49.902;8.600;2023-04-16T03:14:35;8.90;99.90
4985;DHT22;2509;49.902;8.600;2023-04-16T03:17:37;8.90;99.90
4985;DHT22;2509;49.902;8.600;2023-04-16T03:20:38;8.90;99.90
4985;DHT22;2509;49.902;8.600;2023-04-16T03:23:41;8.90;99.90
4985;DHT22;2509;49.902;8.600;2023-04-16T03:26:43;8.90;99.90
4985;DHT22;2509;49.902;8.600;2023-04-16T03:29:45;8.90;99.90
4985;DHT22;2509;49.902;8.600;2023-04-16T03:32:47;8.90;99.90
4985;DHT22;2509;49.902;8.600;2023-04-16T03:35:54;8.90;99.90
4985;DHT22;2509;49.902;8.600;2023-04-16T03:38:58;8.90;99.90
4985;DHT22;2509;49.902;8.600;2023-04-16T03:41:59;8.90;99.90
4985;DHT22;2509;49.902;8.600;2023-04-16T03:45:03;8.90;99.90
4985;DHT22;2509;49.902;8.600;2023-04-16T03:48:05;8.90;99.90
4985;DHT22;2509;49.902;8.600;2023-04-16T03:51:07;8.90;99.90
4985;DHT22;2509;49.902;8.600;2023-04-16T03:54:10;8.90;99.90
4985;DHT22;2509;49.902;8.600;2023-04-16T03:57:12;8.90;99.90
4985;DHT22;2509;49.902;8.600;2023-04-16T04:00:14;8.80;99.90
4985;DHT22;2509;49.902;8.600;2023-04-16T04:03:16;8.80;99.90
4985;DHT22;2509;49.902;8.600;2023-04-16T04:06:17;8.80;99.90
4985;DHT22;2509;49.902;8.600;2023-04-16T04:09:21;8.80;99.90
4985;DHT22;2509;49.902;8.600;2023-04-16T04:12:22;8.80;99.90
4985;DHT22;2509;49.902;8.600;2023-04-16T04:15:24;8.80;99.90
4985;DHT22;2509;49.902;8.600;2023-04-16T04:18:26;8.80;99.90
4985;DHT22;2509;49.902;8.600;2023-04-16T04:21:28;8.80;99.90
4985;DHT22;2509;49.902;8.600;2023-04-16T04:24:32;8.90;99.90
4985;DHT22;2509;49.902;8.600;2023-04-16T04:27:34;8.90;99.90
4985;DHT22;2509;49.902;8.600;2023-04-16T04:30:35;8.90;99.90
4985;DHT22;2509;49.902;8.600;2023-04-16T04:33:37;8.90;99.90
4985;DHT22;2509;49.902;8.600;2023-04-16T04:36:39;8.90;99.90
4985;DHT22;2509;49.902;8.600;2023-04-16T04:39:42;8.90;99.90
4985;DHT22;2509;49.902;8.600;2023-04-16T04:42:44;8.90;99.90
4985;DHT22;2509;49.902;8.600;2023-04-16T04:45:46;8.80;99.90
4985;DHT22;2509;49.902;8.600;2023-04-16T04:48:48;8.80;99.90
4985;DHT22;2509;49.902;8.600;2023-04-16T04:51:50;8.80;99.90
4985;DHT22;2509;49.902;8.600;2023-04-16T04:54:53;8.80;99.90
4985;DHT22;2509;49.902;8.600;2023-04-16T04:57:55;8.90;99.90
4985;DHT22;2509;49.902;8.600;2023-04-16T05:00:57;8.90;99.90
4985;DHT22;2509;49.902;8.600;2023-04-16T05:03:59;8.90;99.90
4985;DHT22;2509;49.902;8.600;2023-04-16T05:07:01;8.90;99.90
4985;DHT22;2509;49.902;8.600;2023-04-16T05:10:05;9.00;99.90
4985;DHT22;2509;49.902;8.600;2023-04-16T05:13:07;9.00;99.90
4985;DHT22;2509;49.902;8.600;2023-04-16T05:16:09;9.00;99.90
4985;DHT22;2509;49.902;8.600;2023-04-16T05:19:10;9.00;99.90
4985;DHT22;2509;49.902;8.600;2023-04-16T05:22:12;9.00;99.90
4985;DHT22;2509;49.902;8.600;2023-04-16T05:25:19;9.00;99.90
4985;DHT22;2509;49.902;8.600;2023-04-16T05:28:21;9.00;99.90
4985;DHT22;2509;49.902;8.600;2023-04-16T05:31:23;9.00;99.90
4985;DHT22;2509;49.902;8.600;2023-04-16T05:34:25;9.00;99.90
4985;DHT22;2509;49.902;8.600;2023-04-16T05:37:27;9.00;99.90
4985;DHT22;2509;49.902;8.600;2023-04-16T05:40:30;9.00;99.90
4985;DHT22;2509;49.902;8.600;2023-04-16T05:43:32;9.00;99.90
4985;DHT22;2509;49.902;8.600;2023-04-16T05:46:34;9.00;99.90
4985;DHT22;2509;49.902;8.600;2023-04-16T05:49:35;9.00;99.90
4985;DHT22;2509;49.902;8.600;2023-04-16T05:52:37;9.00;99.90
4985;DHT22;2509;49.902;8.600;2023-04-16T05:55:40;9.00;99.90
4985;DHT22;2509;49.902;8.600;2023-04-16T05:58:42;9.00;99.90
4985;DHT22;2509;49.902;8.600;2023-04-16T06:01:44;9.10;99.90
4985;DHT22;2509;49.902;8.600;2023-04-16T06:04:46;9.00;99.90
4985;DHT22;2509;49.902;8.600;2023-04-16T06:07:49;9.00;99.90
4985;DHT22;2509;49.902;8.600;2023-04-16T06:10:52;9.10;99.90
4985;DHT22;2509;49.902;8.600;2023-04-16T06:13:54;9.10;99.90
4985;DHT22;2509;49.902;8.600;2023-04-16T06:16:55;9.10;99.90
4985;DHT22;2509;49.902;8.600;2023-04-16T06:19:57;9.10;99.90
4985;DHT22;2509;49.902;8.600;2023-04-16T06:22:59;9.10;99.90
4985;DHT22;2509;49.902;8.600;2023-04-16T06:26:03;9.10;99.90
4985;DHT22;2509;49.902;8.600;2023-04-16T06:29:05;9.10;99.90
4985;DHT22;2509;49.902;8.600;2023-04-16T06:32:07;9.20;99.90
4985;DHT22;2509;49.902;8.600;2023-04-16T06:35:09;9.20;99.90
4985;DHT22;2509;49.902;8.600;2023-04-16T06:38:11;9.20;99.90
4985;DHT22;2509;49.902;8.600;2023-04-16T06:41:14;9.30;99.90
4985;DHT22;2509;49.902;8.600;2023-04-16T06:44:16;9.30;99.90
4985;DHT22;2509;49.902;8.600;2023-04-16T06:47:17;9.40;99.90
4985;DHT22;2509;49.902;8.600;2023-04-16T06:50:19;9.40;99.90
4985;DHT22;2509;49.902;8.600;2023-04-16T06:53:22;9.40;99.90
4985;DHT22;2509;49.902;8.600;2023-04-16T06:56:26;9.40;99.90
4985;DHT22;2509;49.902;8.600;2023-04-16T06:59:27;9.40;99.90
4985;DHT22;2509;49.902;8.600;2023-04-16T07:02:29;9.50;99.90
4985;DHT22;2509;49.902;8.600;2023-04-16T07:05:31;9.50;99.90
4985;DHT22;2509;49.902;8.600;2023-04-16T07:08:33;9.60;99.90
4985;DHT22;2509;49.902;8.600;2023-04-16T07:11:36;9.60;99.90
4985;DHT22;2509;49.902;8.600;2023-04-16T07:14:38;9.60;99.90
4985;DHT22;2509;49.902;8.600;2023-04-16T07:17:40;9.60;99.90
4985;DHT22;2509;49.902;8.600;2023-04-16T07:20:42;9.50;99.90
4985;DHT22;2509;49.902;8.600;2023-04-16T07:23:44;9.50;99.90
4985;DHT22;2509;49.902;8.600;2023-04-16T07:26:47;9.40;99.90
4985;DHT22;2509;49.902;8.600;2023-04-16T07:29:49;9.40;99.90
4985;DHT22;2509;49.902;8.600;2023-04-16T07:32:51;9.30;99.90
4985;DHT22;2509;49.902;8.600;2023-04-16T07:35:55;9.30;99.90
4985;DHT22;2509;49.902;8.600;2023-04-16T07:38:57;9.30;99.90
4985;DHT22;2509;49.902;8.600;2023-04-16T07:42:00;9.30;99.90
4985;DHT22;2509;49.902;8.600;2023-04-16T07:45:01;9.30;99.90
4985;DHT22;2509;49.902;8.600;2023-04-16T07:48:04;9.20;99.90
4985;DHT22;2509;49.902;8.600;2023-04-16T07:51:05;9.20;99.90
4985;DHT22;2509;49.902;8.600;2023-04-16T07:54:07;9.20;99.90
4985;DHT22;2509;49.902;8.600;2023-04-16T07:57:11;9.20;99.90
4985;DHT22;2509;49.902;8.600;2023-04-16T08:00:13;9.20;99.90
4985;DHT22;2509;49.902;8.600;2023-04-16T08:03:15;9.30;99.90
4985;DHT22;2509;49.902;8.600;2023-04-16T08:06:17;9.30;99.90
4985;DHT22;2509;49.902;8.600;2023-04-16T08:09:19;9.20;99.90
4985;DHT22;2509;49.902;8.600;2023-04-16T08:12:22;9.20;99.90
4985;DHT22;2509;49.902;8.600;2023-04-16T08:15:24;9.20;99.90
4985;DHT22;2509;49.902;8.600;2023-04-16T08:18:26;9.20;99.90
4985;DHT22;2509;49.902;8.600;2023-04-16T08:21:27;9.20;99.90
4985;DHT22;2509;49.902;8.600;2023-04-16T08:24:31;9.20;99.90
4985;DHT22;2509;49.902;8.600;2023-04-16T08:27:34;9.20;99.90
4985;DHT22;2509;49.902;8.600;2023-04-16T08:30:36;9.20;99.90
4985;DHT22;2509;49.902;8.600;2023-04-16T08:33:39;9.10;99.90
4985;DHT22;2509;49.902;8.600;2023-04-16T08:36:41;9.10;99.90
4985;DHT22;2509;49.902;8.600;2023-04-16T08:39:43;9.10;99.90
4985;DHT22;2509;49.902;8.600;2023-04-16T08:42:50;9.20;99.90
4985;DHT22;2509;49.902;8.600;2023-04-16T08:45:54;9.20;99.90
4985;DHT22;2509;49.902;8.600;2023-04-16T08:48:58;9.20;99.90
4985;DHT22;2509;49.902;8.600;2023-04-16T08:52:05;9.20;99.90
4985;DHT22;2509;49.902;8.600;2023-04-16T08:55:11;9.20;99.90
4985;DHT22;2509;49.902;8.600;2023-04-16T08:58:18;9.30;99.90
4985;DHT22;2509;49.902;8.600;2023-04-16T09:01:20;9.30;99.90
4985;DHT22;2509;49.902;8.600;2023-04-16T09:04:24;9.30;99.90
4985;DHT22;2509;49.902;8.600;2023-04-16T09:07:28;9.30;99.90
4985;DHT22;2509;49.902;8.600;2023-04-16T09:10:30;9.40;99.90
4985;DHT22;2509;49.902;8.600;2023-04-16T09:13:33;9.40;99.90
4985;DHT22;2509;49.902;8.600;2023-04-16T09:16:35;9.50;99.90
4985;DHT22;2509;49.902;8.600;2023-04-16T09:19:37;9.50;99.90
4985;DHT22;2509;49.902;8.600;2023-04-16T09:22:39;9.50;99.90
4985;DHT22;2509;49.902;8.600;2023-04-16T09:25:41;9.50;99.90
4985;DHT22;2509;49.902;8.600;2023-04-16T09:28:45;9.60;99.90
4985;DHT22;2509;49.902;8.600;2023-04-16T09:32:01;9.60;99.90
4985;DHT22;2509;49.902;8.600;2023-04-16T09:35:03;9.70;99.90
4985;DHT22;2509;49.902;8.600;2023-04-16T09:38:05;9.70;99.90
4985;DHT22;2509;49.902;8.600;2023-04-16T09:41:07;9.70;99.90
4985;DHT22;2509;49.902;8.600;2023-04-16T09:44:11;9.70;99.90
4985;DHT22;2509;49.902;8.600;2023-04-16T09:47:12;9.80;99.90
4985;DHT22;2509;49.902;8.600;2023-04-16T09:50:15;9.80;99.90
4985;DHT22;2509;49.902;8.600;2023-04-16T09:53:23;9.80;99.90
4985;DHT22;2509;49.902;8.600;2023-04-16T09:56:25;9.90;99.90
4985;DHT22;2509;49.902;8.600;2023-04-16T09:59:28;9.90;99.90
4985;DHT22;2509;49.902;8.600;2023-04-16T10:02:33;9.90;99.90
4985;DHT22;2509;49.902;8.600;2023-04-16T10:05:38;10.00;99.90
4985;DHT22;2509;49.902;8.600;2023-04-16T10:08:42;10.00;99.90
4985;DHT22;2509;49.902;8.600;2023-04-16T10:11:44;10.10;99.90
4985;DHT22;2509;49.902;8.600;2023-04-16T10:14:48;10.10;99.90
4985;DHT22;2509;49.902;8.600;2023-04-16T10:17:50;10.20;99.90
4985;DHT22;2509;49.902;8.600;2023-04-16T10:20:54;10.20;99.90
4985;DHT22;2509;49.902;8.600;2023-04-16T10:23:57;10.30;99.90
4985;DHT22;2509;49.902;8.600;2023-04-16T10:27:01;10.40;99.90
4985;DHT22;2509;49.902;8.600;2023-04-16T10:30:08;10.40;99.90
4985;DHT22;2509;49.902;8.600;2023-04-16T10:33:12;10.50;99.90
4985;DHT22;2509;49.902;8.600;2023-04-16T10:36:34;10.60;99.90
4985;DHT22;2509;49.902;8.600;2023-04-16T10:39:37;10.60;99.90
4985;DHT22;2509;49.902;8.600;2023-04-16T10:42:39;10.60;99.90
4985;DHT22;2509;49.902;8.600;2023-04-16T10:49:52;10.60;99.90
4985;DHT22;2509;49.902;8.600;2023-04-16T10:53:18;10.60;99.90
4985;DHT22;2509;49.902;8.600;2023-04-16T10:56:37;10.60;99.90
4985;DHT22;2509;49.902;8.600;2023-04-16T10:59:41;10.60;99.90
4985;DHT22;2509;49.902;8.600;2023-04-16T11:03:03;10.60;99.90
4985;DHT22;2509;49.902;8.600;2023-04-16T11:06:26;10.60;99.90
4985;DHT22;2509;49.902;8.600;2023-04-16T11:09:52;10.70;99.90
4985;DHT22;2509;49.902;8.600;2023-04-16T11:12:55;10.70;99.90
4985;DHT22;2509;49.902;8.600;2023-04-16T11:15:57;10.60;99.90
4985;DHT22;2509;49.902;8.600;2023-04-16T11:18:59;10.60;99.90
4985;DHT22;2509;49.902;8.600;2023-04-16T11:22:04;10.60;99.90
4985;DHT22;2509;49.902;8.600;2023-04-16T11:25:06;10.70;99.90
4985;DHT22;2509;49.902;8.600;2023-04-16T11:28:08;10.70;99.90
4985;DHT22;2509;49.902;8.600;2023-04-16T11:31:22;10.70;99.90
4985;DHT22;2509;49.902;8.600;2023-04-16T11:34:43;10.80;99.90
4985;DHT22;2509;49.902;8.600;2023-04-16T11:37:47;10.80;99.90
4985;DHT22;2509;49.902;8.600;2023-04-16T11:40:49;10.80;99.90
4985;DHT22;2509;49.902;8.600;2023-04-16T11:43:53;10.70;99.90
4985;DHT22;2509;49.902;8.600;2023-04-16T11:46:55;10.70;99.90
4985;DHT22;2509;49.902;8.600;2023-04-16T11:49:57;10.70;99.90
4985;DHT22;2509;49.902;8.600;2023-04-16T11:53:04;10.70;99.90
4985;DHT22;2509;49.902;8.600;2023-04-16T11:56:05;10.70;99.90
4985;DHT22;2509;49.902;8.600;2023-04-16T11:59:08;10.70;99.90
4985;DHT22;2509;49.902;8.600;2023-04-16T12:02:10;10.80;99.90
4985;DHT22;2509;49.902;8.600;2023-04-16T12:05:25;10.80;99.90
4985;DHT22;2509;49.902;8.600;2023-04-16T12:08:29;10.80;99.90
4985;DHT22;2509;49.902;8.600;2023-04-16T12:11:37;10.80;99.90
4985;DHT22;2509;49.902;8.600;2023-04-16T12:14:49;10.90;99.90
4985;DHT22;2509;49.902;8.600;2023-04-16T12:18:05;11.00;99.90
4985;DHT22;2509;49.902;8.600;2023-04-16T12:21:07;11.10;99.90
4985;DHT22;2509;49.902;8.600;2023-04-16T12:24:11;11.30;99.90
4985;DHT22;2509;49.902;8.600;2023-04-16T12:27:14;11.50;99.90
4985;DHT22;2509;49.902;8.600;2023-04-16T12:30:17;11.70;99.90
4985;DHT22;2509;49.902;8.600;2023-04-16T12:33:20;11.80;99.90
4985;DHT22;2509;49.902;8.600;2023-04-16T12:36:22;11.90;99.90
4985;DHT22;2509;49.902;8.600;2023-04-16T12:39:25;12.00;99.90
4985;DHT22;2509;49.902;8.600;2023-04-16T12:42:27;12.00;99.90
4985;DHT22;2509;49.902;8.600;2023-04-16T12:45:35;11.90;99.90
4985;DHT22;2509;49.902;8.600;2023-04-16T12:48:36;11.90;99.90
4985;DHT22;2509;49.902;8.600;2023-04-16T12:51:38;11.80;99.90
4985;DHT22;2509;49.902;8.600;2023-04-16T12:54:41;11.70;99.90
4985;DHT22;2509;49.902;8.600;2023-04-16T12:57:43;11.70;99.90
4985;DHT22;2509;49.902;8.600;2023-04-16T13:00:45;11.70;99.90
4985;DHT22;2509;49.902;8.600;2023-04-16T13:03:47;11.70;99.90
4985;DHT22;2509;49.902;8.600;2023-04-16T13:06:49;11.80;99.90
4985;DHT22;2509;49.902;8.600;2023-04-16T13:09:52;11.80;99.90
4985;DHT22;2509;49.902;8.600;2023-04-16T13:12:54;11.80;99.90
4985;DHT22;2509;49.902;8.600;2023-04-16T13:15:56;11.80;99.90
4985;DHT22;2509;49.902;8.600;2023-04-16T13:18:58;11.80;99.90
4985;DHT22;2509;49.902;8.600;2023-04-16T13:21:59;11.70;99.90
4985;DHT22;2509;49.902;8.600;2023-04-16T13:25:03;11.70;99.90
4985;DHT22;2509;49.902;8.600;2023-04-16T13:28:05;11.80;99.90
4985;DHT22;2509;49.902;8.600;2023-04-16T13:31:07;11.80;99.90
4985;DHT22;2509;49.902;8.600;2023-04-16T13:34:09;11.80;99.90
4985;DHT22;2509;49.902;8.600;2023-04-16T13:37:10;11.80;99.90
4985;DHT22;2509;49.902;8.600;2023-04-16T13:40:14;11.80;99.90
4985;DHT22;2509;49.902;8.600;2023-04-16T13:43:15;11.90;99.90
4985;DHT22;2509;49.902;8.600;2023-04-16T13:46:18;12.00;99.90
4985;DHT22;2509;49.902;8.600;2023-04-16T13:49:20;12.00;99.90
4985;DHT22;2509;49.902;8.600;2023-04-16T13:52:22;12.00;99.90
4985;DHT22;2509;49.902;8.600;2023-04-16T13:55:25;12.10;99.90
4985;DHT22;2509;49.902;8.600;2023-04-16T13:58:27;12.20;99.90
4985;DHT22;2509;49.902;8.600;2023-04-16T14:01:28;12.30;99.90
4985;DHT22;2509;49.902;8.600;2023-04-16T14:04:30;12.30;99.90
4985;DHT22;2509;49.902;8.600;2023-04-16T14:07:32;12.40;99.90
4985;DHT22;2509;49.902;8.600;2023-04-16T14:10:38;12.50;99.90
4985;DHT22;2509;49.902;8.600;2023-04-16T14:13:40;12.70;99.90
4985;DHT22;2509;49.902;8.600;2023-04-16T14:16:42;12.80;99.90
4985;DHT22;2509;49.902;8.600;2023-04-16T14:19:44;12.90;99.90
4985;DHT22;2509;49.902;8.600;2023-04-16T14:22:46;12.70;99.90
4985;DHT22;2509;49.902;8.600;2023-04-16T14:25:49;12.60;99.90
4985;DHT22;2509;49.902;8.600;2023-04-16T14:28:51;12.60;99.90
4985;DHT22;2509;49.902;8.600;2023-04-16T14:31:52;12.60;99.90
4985;DHT22;2509;49.902;8.600;2023-04-16T14:34:54;12.60;99.90
4985;DHT22;2509;49.902;8.600;2023-04-16T14:37:56;12.60;99.90
4985;DHT22;2509;49.902;8.600;2023-04-16T14:41:00;12.60;99.90
4985;DHT22;2509;49.902;8.600;2023-04-16T14:44:01;12.50;99.90
4985;DHT22;2509;49.902;8.600;2023-04-16T14:47:05;12.50;99.90
4985;DHT22;2509;49.902;8.600;2023-04-16T14:50:08;12.40;99.90
4985;DHT22;2509;49.902;8.600;2023-04-16T14:53:11;12.30;99.90
4985;DHT22;2509;49.902;8.600;2023-04-16T14:56:14;12.20;99.90
4985;DHT22;2509;49.902;8.600;2023-04-16T14:59:15;12.10;99.90
4985;DHT22;2509;49.902;8.600;2023-04-16T15:02:17;12.00;99.90
4985;DHT22;2509;49.902;8.600;2023-04-16T15:05:19;12.00;99.90
4985;DHT22;2509;49.902;8.600;2023-04-16T15:08:21;11.90;99.90
4985;DHT22;2509;49.902;8.600;2023-04-16T15:11:24;11.90;99.90
4985;DHT22;2509;49.902;8.600;2023-04-16T15:14:26;11.90;99.90
4985;DHT22;2509;49.902;8.600;2023-04-16T15:17:27;11.90;99.90
4985;DHT22;2509;49.902;8.600;2023-04-16T15:20:29;11.80;99.90
4985;DHT22;2509;49.902;8.600;2023-04-16T15:23:31;11.80;99.90
4985;DHT22;2509;49.902;8.600;2023-04-16T15:26:34;11.80;99.90
4985;DHT22;2509;49.902;8.600;2023-04-16T15:29:36;11.70;99.90
4985;DHT22;2509;49.902;8.600;2023-04-16T15:32:38;11.70;99.90
4985;DHT22;2509;49.902;8.600;2023-04-16T15:35:39;11.70;99.90
4985;DHT22;2509;49.902;8.600;2023-04-16T15:38:41;11.80;99.90
4985;DHT22;2509;49.902;8.600;2023-04-16T15:41:45;11.90;99.90
4985;DHT22;2509;49.902;8.600;2023-04-16T15:44:46;11.90;99.90
4985;DHT22;2509;49.902;8.600;2023-04-16T15:47:48;11.90;99.90
4985;DHT22;2509;49.902;8.600;2023-04-16T15:50:51;12.00;99.90
4985;DHT22;2509;49.902;8.600;2023-04-16T15:53:53;12.00;99.90
4985;DHT22;2509;49.902;8.600;2023-04-16T15:56:56;12.10;99.90
4985;DHT22;2509;49.902;8.600;2023-04-16T15:59:58;12.10;99.90
4985;DHT22;2509;49.902;8.600;2023-04-16T16:02:59;12.20;99.90
4985;DHT22;2509;49.902;8.600;2023-04-16T16:06:01;12.10;99.90
4985;DHT22;2509;49.902;8.600;2023-04-16T16:09:04;12.20;99.90
4985;DHT22;2509;49.902;8.600;2023-04-16T16:12:07;12.20;99.90
4985;DHT22;2509;49.902;8.600;2023-04-16T16:15:09;12.30;99.90
4985;DHT22;2509;49.902;8.600;2023-04-16T16:18:11;12.30;99.90
4985;DHT22;2509;49.902;8.600;2023-04-16T16:21:13;12.30;99.90
4985;DHT22;2509;49.902;8.600;2023-04-16T16:24:14;12.30;99.90
4985;DHT22;2509;49.902;8.600;2023-04-16T16:27:18;12.40;99.90
4985;DHT22;2509;49.902;8.600;2023-04-16T16:30:20;12.30;99.90
4985;DHT22;2509;49.902;8.600;2023-04-16T16:33:21;12.30;99.90
4985;DHT22;2509;49.902;8.600;2023-04-16T16:36:23;12.20;99.90
4985;DHT22;2509;49.902;8.600;2023-04-16T16:39:25;12.10;99.90
4985;DHT22;2509;49.902;8.600;2023-04-16T16:42:28;12.00;99.90
4985;DHT22;2509;49.902;8.600;2023-04-16T16:45:31;12.00;99.90
4985;DHT22;2509;49.902;8.600;2023-04-16T16:48:32;11.90;99.90
4985;DHT22;2509;49.902;8.600;2023-04-16T16:51:34;11.90;99.90
4985;DHT22;2509;49.902;8.600;2023-04-16T16:54:36;11.80;99.90
4985;DHT22;2509;49.902;8.600;2023-04-16T16:57:39;11.80;99.90
4985;DHT22;2509;49.902;8.600;2023-04-16T17:00:41;11.70;99.90
4985;DHT22;2509;49.902;8.600;2023-04-16T17:03:42;11.70;99.90
4985;DHT22;2509;49.902;8.600;2023-04-16T17:06:44;11.70;99.90
4985;DHT22;2509;49.902;8.600;2023-04-16T17:09:46;11.60;99.90
4985;DHT22;2509;49.902;8.600;2023-04-16T17:12:50;11.60;99.90
4985;DHT22;2509;49.902;8.600;2023-04-16T17:15:51;11.60;99.90
4985;DHT22;2509;49.902;8.600;2023-04-16T17:18:54;11.50;99.90
4985;DHT22;2509;49.902;8.600;2023-04-16T17:21:57;11.50;99.90
4985;DHT22;2509;49.902;8.600;2023-04-16T17:24:58;11.50;99.90
4985;DHT22;2509;49.902;8.600;2023-04-16T17:28:01;11.50;99.90
4985;DHT22;2509;49.902;8.600;2023-04-16T17:31:05;11.40;99.90
4985;DHT22;2509;49.902;8.600;2023-04-16T17:34:07;11.30;99.90
4985;DHT22;2509;49.902;8.600;2023-04-16T17:37:09;11.30;99.90
4985;DHT22;2509;49.902;8.600;2023-04-16T17:40:11;11.30;99.90
4985;DHT22;2509;49.902;8.600;2023-04-16T17:43:16;11.20;99.90
4985;DHT22;2509;49.902;8.600;2023-04-16T17:46:18;11.20;99.90
4985;DHT22;2509;49.902;8.600;2023-04-16T17:49:19;11.20;99.90
4985;DHT22;2509;49.902;8.600;2023-04-16T17:52:21;11.10;99.90
4985;DHT22;2509;49.902;8.600;2023-04-16T17:55:23;11.10;99.90
4985;DHT22;2509;49.902;8.600;2023-04-16T17:58:27;11.10;99.90
4985;DHT22;2509;49.902;8.600;2023-04-16T18:01:32;11.00;99.90
4985;DHT22;2509;49.902;8.600;2023-04-16T18:04:34;11.00;99.90
4985;DHT22;2509;49.902;8.600;2023-04-16T18:07:35;11.00;99.90
4985;DHT22;2509;49.902;8.600;2023-04-16T18:10:38;10.90;99.90
4985;DHT22;2509;49.902;8.600;2023-04-16T18:13:41;10.90;99.90
4985;DHT22;2509;49.902;8.600;2023-04-16T18:16:45;10.90;99.90
4985;DHT22;2509;49.902;8.600;2023-04-16T18:19:47;10.80;99.90
4985;DHT22;2509;49.902;8.600;2023-04-16T18:22:48;10.80;99.90
4985;DHT22;2509;49.902;8.600;2023-04-16T18:25:50;10.80;99.90
4985;DHT22;2509;49.902;8.600;2023-04-16T18:28:53;10.70;99.90
4985;DHT22;2509;49.902;8.600;2023-04-16T18:31:55;10.60;99.90
4985;DHT22;2509;49.902;8.600;2023-04-16T18:34:57;10.60;99.90
4985;DHT22;2509;49.902;8.600;2023-04-16T18:37:58;10.60;99.90
4985;DHT22;2509;49.902;8.600;2023-04-16T18:41:00;10.60;99.90
4985;DHT22;2509;49.902;8.600;2023-04-16T18:44:03;10.60;99.90
4985;DHT22;2509;49.902;8.600;2023-04-16T18:47:05;10.60;99.90
4985;DHT22;2509;49.902;8.600;2023-04-16T18:50:07;10.50;99.90
4985;DHT22;2509;49.902;8.600;2023-04-16T18:53:09;10.50;99.90
4985;DHT22;2509;49.902;8.600;2023-04-16T18:56:11;10.50;99.90
4985;DHT22;2509;49.902;8.600;2023-04-16T18:59:14;10.50;99.90
4985;DHT22;2509;49.902;8.600;2023-04-16T19:02:16;10.50;99.90
4985;DHT22;2509;49.902;8.600;2023-04-16T19:05:18;10.40;99.90
4985;DHT22;2509;49.902;8.600;2023-04-16T19:08:21;10.40;99.90
4985;DHT22;2509;49.902;8.600;2023-04-16T19:11:22;10.40;99.90
4985;DHT22;2509;49.902;8.600;2023-04-16T19:14:25;10.40;99.90
4985;DHT22;2509;49.902;8.600;2023-04-16T19:17:27;10.40;99.90
4985;DHT22;2509;49.902;8.600;2023-04-16T19:20:29;10.40;99.90
4985;DHT22;2509;49.902;8.600;2023-04-16T19:23:33;10.40;99.90
4985;DHT22;2509;49.902;8.600;2023-04-16T19:26:35;10.30;99.90
4985;DHT22;2509;49.902;8.600;2023-04-16T19:29:38;10.30;99.90
4985;DHT22;2509;49.902;8.600;2023-04-16T19:32:42;10.30;99.90
4985;DHT22;2509;49.902;8.600;2023-04-16T19:35:44;10.20;99.90
4985;DHT22;2509;49.902;8.600;2023-04-16T19:38:46;10.30;99.90
4985;DHT22;2509;49.902;8.600;2023-04-16T19:41:48;10.20;99.90
4985;DHT22;2509;49.902;8.600;2023-04-16T19:44:51;10.20;99.90
4985;DHT22;2509;49.902;8.600;2023-04-16T19:47:53;10.20;99.90
4985;DHT22;2509;49.902;8.600;2023-04-16T19:50:55;10.20;99.90
4985;DHT22;2509;49.902;8.600;2023-04-16T19:53:57;10.20;99.90
4985;DHT22;2509;49.902;8.600;2023-04-16T19:56:59;10.20;99.90
4985;DHT22;2509;49.902;8.600;2023-04-16T20:00:02;10.20;99.90
4985;DHT22;2509;49.902;8.600;2023-04-16T20:03:08;10.20;99.90
4985;DHT22;2509;49.902;8.600;2023-04-16T20:06:10;10.20;99.90